createdAt,value
2022-12-25T00:01:26.522Z,47.27
2022-12-25T00:03:55.119Z,37.20
2022-12-25T00:06:23.791Z,45.23
2022-12-25T00:08:52.082Z,45.43
2022-12-25T00:11:21.856Z,48.97
2022-12-25T00:13:51.032Z,37.30
2022-12-25T00:16:24.349Z,38.53
2022-12-25T00:18:53.145Z,41.63
2022-12-25T00:21:22.845Z,38.60
2022-12-25T00:23:55.547Z,41.97
2022-12-25T00:26:24.881Z,41.20
2022-12-25T00:28:54.287Z,39.33
2022-12-25T00:31:25.282Z,39.37
2022-12-25T00:33:54.335Z,39.07
2022-12-25T00:36:24.249Z,41.30
2022-12-25T00:38:52.525Z,44.60
2022-12-25T00:41:44.362Z,39.13
2022-12-25T00:44:14.899Z,42.90
2022-12-25T00:46:45.461Z,38.23
2022-12-25T00:49:14.311Z,43.97
2022-12-25T00:51:43.090Z,46.33
2022-12-25T00:54:11.662Z,40.83
2022-12-25T00:56:40.522Z,39.37
2022-12-25T00:59:09.061Z,42.90
2022-12-25T01:01:38.728Z,33.33
2022-12-25T01:04:08.904Z,37.73
2022-12-25T01:06:37.653Z,43.90
2022-12-25T01:09:24.054Z,35.87
2022-12-25T01:11:52.692Z,41.60
2022-12-25T01:14:21.010Z,38.40
2022-12-25T01:16:49.771Z,37.90
2022-12-25T01:19:19.621Z,38.17
2022-12-25T01:21:48.312Z,39.67
2022-12-25T01:24:16.587Z,34.93
2022-12-25T01:26:45.189Z,41.03
2022-12-25T01:29:13.488Z,36.67
2022-12-25T01:31:42.254Z,38.73
2022-12-25T01:34:10.611Z,36.13
2022-12-25T01:36:40.462Z,42.93
2022-12-25T01:39:08.766Z,39.40
2022-12-25T01:41:37.399Z,36.70
2022-12-25T01:44:08.324Z,39.07
2022-12-25T01:46:38.001Z,41.70
2022-12-25T01:49:10.674Z,37.83
2022-12-25T01:51:44.891Z,41.23
2022-12-25T01:54:16.347Z,40.63
2022-12-25T01:56:46.771Z,44.10
2022-12-25T01:59:16.875Z,35.03
2022-12-25T02:01:46.261Z,34.90
2022-12-25T02:04:20.664Z,39.03
2022-12-25T02:06:52.821Z,43.67
2022-12-25T02:09:21.012Z,34.73
2022-12-25T02:11:58.522Z,40.40
2022-12-25T02:14:28.505Z,41.00
2022-12-25T02:17:07.473Z,41.07
2022-12-25T02:19:58.964Z,35.10
2022-12-25T02:22:42.866Z,40.30
2022-12-25T02:25:23.878Z,47.03
2022-12-25T02:28:08.324Z,33.40
2022-12-25T02:30:42.938Z,38.37
2022-12-25T02:33:34.377Z,38.27
2022-12-25T02:36:08.551Z,36.97
2022-12-25T02:39:02.320Z,35.37
2022-12-25T02:41:36.523Z,50.77
2022-12-25T02:44:30.044Z,35.77
2022-12-25T02:47:15.909Z,44.90
2022-12-25T02:50:03.045Z,37.60
2022-12-25T02:52:50.243Z,33.63
2022-12-25T02:55:42.206Z,31.10
2022-12-25T02:58:30.918Z,37.80
2022-12-25T03:01:22.853Z,34.90
2022-12-25T03:04:11.812Z,30.33
2022-12-25T03:06:46.688Z,44.40
2022-12-25T03:09:38.203Z,35.00
2022-12-25T03:12:14.967Z,34.77
2022-12-25T03:15:00.961Z,36.97
2022-12-25T03:17:32.768Z,42.20
2022-12-25T03:20:19.246Z,37.90
2022-12-25T03:23:06.475Z,47.83
2022-12-25T03:25:53.870Z,36.57
2022-12-25T03:28:22.533Z,40.00
2022-12-25T03:31:11.766Z,36.07
2022-12-25T03:34:24.022Z,36.57
2022-12-25T03:37:16.466Z,33.23
2022-12-25T03:40:12.547Z,37.33
2022-12-25T03:43:04.317Z,38.90
2022-12-25T03:45:58.162Z,41.17
2022-12-25T03:48:45.953Z,36.70
2022-12-25T03:51:36.266Z,37.47
2022-12-25T03:54:25.475Z,39.43
2022-12-25T03:57:11.631Z,38.50
2022-12-25T03:59:57.424Z,36.10
2022-12-25T04:02:43.920Z,30.87
2022-12-25T04:05:30.917Z,41.13
2022-12-25T04:08:18.638Z,46.17
2022-12-25T04:11:04.360Z,37.20
2022-12-25T04:13:50.332Z,40.33
2022-12-25T04:16:36.045Z,48.83
2022-12-25T04:19:21.984Z,47.40
2022-12-25T04:22:07.573Z,30.27
2022-12-25T04:24:55.259Z,35.83
2022-12-25T04:27:41.505Z,51.07
2022-12-25T04:30:28.657Z,44.20
2022-12-25T04:33:16.810Z,46.20
2022-12-25T04:36:06.297Z,40.77
2022-12-25T04:38:34.744Z,45.23
2022-12-25T04:41:04.875Z,43.77
2022-12-25T04:43:33.388Z,35.27
2022-12-25T04:46:03.296Z,39.80
2022-12-25T04:48:33.489Z,42.50
2022-12-25T04:51:15.561Z,42.60
2022-12-25T04:53:44.848Z,44.67
2022-12-25T04:56:15.354Z,36.20
2022-12-25T04:58:44.797Z,33.60
2022-12-25T05:01:14.542Z,40.00
2022-12-25T05:03:43.186Z,37.93
2022-12-25T05:06:12.282Z,38.70
2022-12-25T05:08:40.860Z,40.43
2022-12-25T05:11:11.106Z,42.07
2022-12-25T05:13:41.184Z,42.90
2022-12-25T05:16:13.250Z,40.93
2022-12-25T05:18:41.693Z,47.50
2022-12-25T05:21:11.509Z,44.13
2022-12-25T05:23:48.400Z,41.13
2022-12-25T05:26:18.299Z,41.83
2022-12-25T05:28:48.205Z,45.77
2022-12-25T05:31:17.456Z,51.37
2022-12-25T05:33:46.055Z,41.13
2022-12-25T05:36:14.688Z,41.27
2022-12-25T05:38:43.028Z,47.17
2022-12-25T05:41:11.692Z,40.93
2022-12-25T05:43:40.463Z,54.03
2022-12-25T05:46:11.568Z,48.57
2022-12-25T05:48:40.265Z,48.07
2022-12-25T05:51:10.974Z,44.47
2022-12-25T05:53:40.303Z,38.60
2022-12-25T05:56:10.574Z,37.77
2022-12-25T05:58:40.448Z,48.07
2022-12-25T06:01:15.497Z,43.00
2022-12-25T06:03:43.924Z,48.43
2022-12-25T06:06:13.543Z,46.70
2022-12-25T06:08:41.749Z,48.07
2022-12-25T06:11:11.379Z,45.93
2022-12-25T06:13:40.049Z,48.17
2022-12-25T06:16:10.879Z,43.67
2022-12-25T06:18:41.795Z,49.97
2022-12-25T06:21:11.871Z,55.50
2022-12-25T06:23:40.856Z,41.30
2022-12-25T06:26:11.585Z,45.23
2022-12-25T06:28:40.403Z,50.53
2022-12-25T06:31:10.305Z,42.60
2022-12-25T06:33:40.107Z,53.73
2022-12-25T06:36:09.843Z,46.83
2022-12-25T06:38:38.661Z,44.27
2022-12-25T06:41:09.435Z,51.10
2022-12-25T06:43:38.106Z,44.33
2022-12-25T06:46:10.292Z,51.73
2022-12-25T06:48:47.875Z,47.10
2022-12-25T06:51:17.435Z,44.33
2022-12-25T06:53:45.936Z,57.33
2022-12-25T06:56:16.437Z,61.63
2022-12-25T06:58:45.965Z,64.67
2022-12-25T07:01:19.809Z,51.57
2022-12-25T07:03:52.559Z,56.50
2022-12-25T07:06:21.180Z,47.50
2022-12-25T07:08:50.047Z,50.83
2022-12-25T07:11:19.502Z,53.57
2022-12-25T07:13:48.265Z,47.83
2022-12-25T07:16:17.272Z,48.70
2022-12-25T07:18:45.833Z,46.07
2022-12-25T07:21:18.108Z,53.07
2022-12-25T07:23:48.198Z,51.70
2022-12-25T07:26:17.583Z,60.80
2022-12-25T07:28:46.346Z,47.80
2022-12-25T07:31:16.752Z,50.93
2022-12-25T07:33:45.785Z,60.13
2022-12-25T07:36:16.539Z,48.73
2022-12-25T07:38:45.324Z,43.57
2022-12-25T07:41:13.951Z,56.83
2022-12-25T07:43:42.909Z,60.80
2022-12-25T07:46:12.426Z,55.70
2022-12-25T07:48:41.157Z,55.33
2022-12-25T07:51:13.922Z,52.57
2022-12-25T07:53:44.118Z,46.03
2022-12-25T07:56:15.253Z,54.20
2022-12-25T07:58:43.912Z,47.80
2022-12-25T08:01:15.087Z,46.07
2022-12-25T08:03:43.800Z,58.97
2022-12-25T08:06:12.990Z,45.20
2022-12-25T08:08:42.214Z,41.60
2022-12-25T08:11:12.465Z,63.53
2022-12-25T08:13:41.704Z,42.60
2022-12-25T08:16:12.145Z,45.17
2022-12-25T08:18:42.896Z,60.33
2022-12-25T08:21:13.414Z,55.80
2022-12-25T08:23:45.415Z,47.73
2022-12-25T08:26:17.138Z,58.97
2022-12-25T08:28:45.930Z,56.30
2022-12-25T08:31:18.560Z,63.63
2022-12-25T08:33:48.720Z,54.43
2022-12-25T08:36:18.332Z,49.87
2022-12-25T08:38:47.490Z,49.93
2022-12-25T08:41:18.377Z,48.47
2022-12-25T08:43:46.925Z,52.90
2022-12-25T08:46:16.300Z,69.03
2022-12-25T08:48:45.372Z,76.00
2022-12-25T08:51:15.687Z,48.63
2022-12-25T08:53:45.053Z,50.17
2022-12-25T08:56:14.272Z,47.63
2022-12-25T08:58:44.987Z,55.90
2022-12-25T09:01:15.053Z,56.93
2022-12-25T09:03:44.069Z,51.00
2022-12-25T09:06:15.179Z,73.50
2022-12-25T09:08:49.060Z,66.77
2022-12-25T09:11:20.292Z,54.03
2022-12-25T09:13:50.740Z,50.30
2022-12-25T09:16:21.497Z,50.07
2022-12-25T09:18:50.786Z,53.03
2022-12-25T09:21:20.070Z,62.53
2022-12-25T09:23:48.504Z,62.70
2022-12-25T09:26:19.477Z,64.20
2022-12-25T09:28:52.379Z,55.53
2022-12-25T09:31:23.402Z,56.43
2022-12-25T09:33:52.675Z,54.53
2022-12-25T09:36:23.446Z,64.13
2022-12-25T09:38:53.004Z,71.10
2022-12-25T09:41:28.161Z,52.83
2022-12-25T09:44:02.233Z,54.03
2022-12-25T09:46:39.345Z,55.77
2022-12-25T09:49:16.993Z,54.60
2022-12-25T09:51:50.006Z,52.60
2022-12-25T09:54:23.668Z,45.30
2022-12-25T09:56:52.375Z,60.07
2022-12-25T09:59:26.730Z,51.97
2022-12-25T10:02:19.122Z,44.43
2022-12-25T10:05:02.891Z,56.70
2022-12-25T10:07:37.893Z,44.47
2022-12-25T10:10:23.013Z,53.90
2022-12-25T10:12:57.353Z,62.20
2022-12-25T10:15:45.271Z,45.90
2022-12-25T10:18:39.029Z,44.57
2022-12-25T10:21:13.314Z,46.53
2022-12-25T10:23:47.340Z,43.97
2022-12-25T10:26:17.644Z,49.90
2022-12-25T10:28:49.655Z,45.03
2022-12-25T10:31:22.972Z,47.93
2022-12-25T10:33:53.922Z,38.50
2022-12-25T10:36:24.832Z,57.20
2022-12-25T10:38:54.058Z,54.30
2022-12-25T10:41:50.328Z,42.43
2022-12-25T10:44:20.769Z,46.13
2022-12-25T10:46:52.230Z,60.23
2022-12-25T10:49:23.093Z,35.83
2022-12-25T10:51:52.653Z,59.57
2022-12-25T10:54:24.201Z,42.27
2022-12-25T10:56:58.039Z,40.00
2022-12-25T10:59:28.808Z,39.77
2022-12-25T11:02:06.165Z,49.07
2022-12-25T11:04:36.862Z,49.93
2022-12-25T11:07:08.652Z,55.57
2022-12-25T11:09:37.560Z,65.80
2022-12-25T11:12:06.820Z,56.37
2022-12-25T11:14:35.596Z,63.20
2022-12-25T11:17:11.395Z,48.40
2022-12-25T11:19:40.027Z,50.73
2022-12-25T11:22:19.698Z,65.97
2022-12-25T11:24:48.615Z,61.23
2022-12-25T11:27:24.519Z,62.37
2022-12-25T11:29:57.439Z,52.70
2022-12-25T11:32:31.733Z,53.83
2022-12-25T11:35:02.674Z,59.17
2022-12-25T11:37:37.327Z,65.73
2022-12-25T11:40:07.930Z,65.77
2022-12-25T11:42:39.100Z,69.03
2022-12-25T11:45:17.125Z,65.77
2022-12-25T11:47:51.077Z,77.00
2022-12-25T11:50:32.177Z,66.63
2022-12-25T11:53:05.887Z,72.47
2022-12-25T11:55:41.240Z,79.43
2022-12-25T11:58:17.879Z,61.77
2022-12-25T12:00:49.123Z,66.10
2022-12-25T12:03:24.802Z,55.93
2022-12-25T12:05:56.544Z,59.80
2022-12-25T12:08:24.895Z,60.13
2022-12-25T12:11:16.130Z,64.53
2022-12-25T12:13:58.316Z,63.77
2022-12-25T12:16:28.078Z,54.73
2022-12-25T12:18:58.256Z,57.60
2022-12-25T12:21:30.645Z,65.17
2022-12-25T12:24:05.080Z,55.20
2022-12-25T12:26:38.201Z,66.03
2022-12-25T12:29:08.823Z,73.07
2022-12-25T12:31:41.789Z,56.80
2022-12-25T12:34:23.368Z,59.47
2022-12-25T12:36:54.333Z,69.00
2022-12-25T12:39:26.896Z,64.43
2022-12-25T12:41:56.400Z,54.23
2022-12-25T12:44:28.046Z,67.80
2022-12-25T12:46:58.432Z,50.70
2022-12-25T12:49:30.555Z,60.50
2022-12-25T12:52:07.443Z,43.60
2022-12-25T12:54:56.915Z,44.63
2022-12-25T12:57:27.605Z,42.80
2022-12-25T12:59:59.016Z,56.77
2022-12-25T13:02:55.977Z,54.60
2022-12-25T13:05:35.680Z,55.00
2022-12-25T13:08:22.561Z,64.83
2022-12-25T13:10:53.901Z,62.77
2022-12-25T13:13:27.450Z,64.07
2022-12-25T13:15:58.072Z,59.30
2022-12-25T13:18:27.241Z,57.43
2022-12-25T13:20:59.952Z,66.83
2022-12-25T13:23:32.539Z,53.60
2022-12-25T13:26:03.654Z,50.40
2022-12-25T13:28:34.833Z,50.17
2022-12-25T13:31:04.919Z,51.30
2022-12-25T13:33:34.062Z,56.17
2022-12-25T13:36:04.271Z,51.70
2022-12-25T13:38:33.633Z,47.07
2022-12-25T13:41:19.360Z,50.37
2022-12-25T13:43:50.473Z,54.87
2022-12-25T13:46:27.245Z,49.47
2022-12-25T13:49:00.466Z,48.57
2022-12-25T13:51:33.134Z,48.53
2022-12-25T13:54:05.860Z,49.87
2022-12-25T13:56:36.167Z,45.03
2022-12-25T13:59:06.141Z,48.17
2022-12-25T14:01:34.661Z,39.17
2022-12-25T14:04:04.229Z,42.33
2022-12-25T14:06:33.999Z,38.93
2022-12-25T14:09:02.906Z,33.37
2022-12-25T14:11:33.372Z,30.17
2022-12-25T14:14:05.105Z,41.73
2022-12-25T14:16:35.128Z,34.00
2022-12-25T14:19:04.632Z,34.67
2022-12-25T14:21:38.456Z,37.37
2022-12-25T14:24:14.805Z,23.33
2022-12-25T14:26:44.155Z,28.87
2022-12-25T14:29:17.859Z,27.03
2022-12-25T14:31:48.665Z,34.40
2022-12-25T14:34:21.958Z,30.97
2022-12-25T14:36:52.973Z,35.47
2022-12-25T14:39:29.487Z,23.70
2022-12-25T14:41:58.409Z,28.10
2022-12-25T14:44:33.473Z,40.10
2022-12-25T14:47:07.212Z,31.20
2022-12-25T14:49:35.802Z,41.90
2022-12-25T14:52:16.970Z,33.13
2022-12-25T14:54:48.683Z,40.70
2022-12-25T14:57:20.913Z,34.77
2022-12-25T15:00:00.618Z,35.17
2022-12-25T15:02:34.704Z,40.20
2022-12-25T15:05:03.997Z,40.70
2022-12-25T15:07:34.328Z,39.97
2022-12-25T15:12:55.520Z,40.50
2022-12-25T15:15:24.295Z,56.43
2022-12-25T15:17:53.604Z,43.83
2022-12-25T15:20:25.654Z,45.07
2022-12-25T15:23:18.346Z,51.30
2022-12-25T15:25:44.110Z,48.30
2022-12-25T15:28:13.171Z,48.93
2022-12-25T15:30:42.238Z,52.23
2022-12-25T15:33:14.967Z,52.50
2022-12-25T15:35:45.261Z,46.60
2022-12-25T15:38:15.460Z,50.33
2022-12-25T15:40:44.487Z,52.63
2022-12-25T15:43:39.403Z,45.60
2022-12-25T15:46:04.029Z,57.17
2022-12-25T15:48:32.351Z,42.13
2022-12-25T15:51:00.927Z,48.60
2022-12-25T15:53:30.600Z,48.77
2022-12-25T15:55:59.142Z,58.63
2022-12-25T15:58:27.406Z,54.93
2022-12-25T16:00:56.001Z,39.87
2022-12-25T16:03:24.264Z,38.57
2022-12-25T16:05:53.064Z,47.50
2022-12-25T16:08:21.695Z,57.07
2022-12-25T16:10:53.334Z,48.07
2022-12-25T16:13:21.670Z,37.47
2022-12-25T16:15:50.245Z,38.63
2022-12-25T16:18:18.464Z,40.30
2022-12-25T16:20:47.100Z,60.23
2022-12-25T16:23:15.350Z,42.60
2022-12-25T16:25:43.984Z,57.63
2022-12-25T16:28:13.581Z,34.77
2022-12-25T16:30:43.267Z,42.17
2022-12-25T16:33:12.492Z,41.27
2022-12-25T16:35:41.028Z,43.90
2022-12-25T16:38:09.299Z,48.10
2022-12-25T16:40:37.943Z,42.20
2022-12-25T16:43:06.481Z,43.60
2022-12-25T16:45:40.601Z,63.07
2022-12-25T16:48:09.315Z,49.73
2022-12-25T16:50:40.247Z,51.50
2022-12-25T16:53:08.956Z,38.50
2022-12-25T16:55:38.769Z,50.13
2022-12-25T16:58:07.660Z,41.63
2022-12-25T17:00:36.381Z,58.87
2022-12-25T17:03:06.138Z,50.03
2022-12-25T17:05:35.207Z,44.83
2022-12-25T17:08:03.523Z,50.80
2022-12-25T17:10:32.492Z,45.43
2022-12-25T17:13:00.838Z,42.50
2022-12-25T17:15:29.483Z,44.70
2022-12-25T17:17:57.787Z,42.33
2022-12-25T17:20:27.731Z,46.17
2022-12-25T17:22:57.812Z,42.90
2022-12-25T17:25:26.842Z,44.27
2022-12-25T17:27:55.203Z,47.07
2022-12-25T17:30:23.821Z,48.93
2022-12-25T17:32:52.425Z,41.03
2022-12-25T17:35:21.476Z,39.50
2022-12-25T17:37:51.862Z,47.20
2022-12-25T17:40:20.337Z,50.03
2022-12-25T17:42:48.653Z,38.60
2022-12-25T17:45:18.904Z,39.93
2022-12-25T17:47:47.292Z,44.87
2022-12-25T17:50:15.907Z,40.97
2022-12-25T17:52:44.163Z,47.57
2022-12-25T17:55:14.241Z,50.00
2022-12-25T17:57:42.748Z,38.47
2022-12-25T18:00:14.969Z,51.13
2022-12-25T18:02:47.403Z,46.57
2022-12-25T18:05:16.435Z,49.60
2022-12-25T18:07:44.738Z,42.33
2022-12-25T18:10:14.944Z,47.37
2022-12-25T18:12:45.171Z,49.57
2022-12-25T18:15:14.029Z,36.33
2022-12-25T18:17:42.333Z,48.80
2022-12-25T18:20:11.285Z,52.63
2022-12-25T18:22:39.565Z,43.70
2022-12-25T18:25:09.992Z,43.27
2022-12-25T18:27:40.039Z,51.43
2022-12-25T18:30:09.951Z,55.77
2022-12-25T18:32:38.643Z,42.37
2022-12-25T18:35:08.607Z,52.57
2022-12-25T18:37:40.209Z,41.73
2022-12-25T18:40:10.720Z,45.43
2022-12-25T18:42:40.402Z,38.10
2022-12-25T18:45:12.071Z,44.07
2022-12-25T18:47:40.495Z,41.83
2022-12-25T18:50:10.795Z,52.00
2022-12-25T18:52:49.021Z,67.93
2022-12-25T18:55:20.153Z,55.17
2022-12-25T18:57:49.885Z,46.70
2022-12-25T19:00:18.973Z,55.63
2022-12-25T19:02:48.371Z,39.80
2022-12-25T19:05:18.557Z,44.63
2022-12-25T19:07:46.955Z,48.10
2022-12-25T19:10:15.521Z,47.43
2022-12-25T19:12:43.905Z,51.20
2022-12-25T19:15:14.210Z,50.27
2022-12-25T19:17:42.561Z,48.33
2022-12-25T19:20:12.363Z,46.63
2022-12-25T19:22:40.752Z,55.30
2022-12-25T19:25:09.882Z,48.53
2022-12-25T19:27:38.371Z,44.27
2022-12-25T19:30:08.447Z,49.70
2022-12-25T19:32:38.260Z,47.00
2022-12-25T19:35:07.649Z,52.53
2022-12-25T19:37:36.044Z,52.57
2022-12-25T19:40:05.393Z,53.67
2022-12-25T19:42:33.717Z,60.53
2022-12-25T19:45:03.163Z,55.90
2022-12-25T19:47:31.678Z,59.37
2022-12-25T19:50:04.514Z,48.23
2022-12-25T19:52:32.966Z,46.50
2022-12-25T19:55:01.580Z,50.93
2022-12-25T19:57:29.986Z,51.73
2022-12-25T19:59:58.497Z,55.93
2022-12-25T20:02:27.133Z,47.90
2022-12-25T20:04:57.218Z,45.53
2022-12-25T20:07:27.064Z,54.83
2022-12-25T20:09:55.767Z,50.87
2022-12-25T20:12:24.188Z,58.63
2022-12-25T20:14:52.823Z,47.50
2022-12-25T20:17:21.436Z,48.07
2022-12-25T20:19:50.131Z,38.07
2022-12-25T20:22:18.537Z,45.20
2022-12-25T20:24:49.129Z,47.13
2022-12-25T20:27:17.514Z,45.37
2022-12-25T20:29:46.189Z,40.77
2022-12-25T20:32:14.865Z,41.20
2022-12-25T20:34:44.384Z,40.80
2022-12-25T20:37:13.182Z,37.70
2022-12-25T20:39:42.099Z,46.10
2022-12-25T20:42:11.655Z,35.03
2022-12-25T20:44:40.429Z,42.03
2022-12-25T20:47:09.604Z,33.33
2022-12-25T20:49:38.330Z,36.60
2022-12-25T20:52:06.801Z,38.10
2022-12-25T20:54:35.668Z,33.47
2022-12-25T20:57:03.965Z,38.77
2022-12-25T20:59:37.631Z,42.20
2022-12-25T21:02:08.730Z,47.43
2022-12-25T21:04:57.446Z,34.07
2022-12-25T21:07:26.127Z,43.53
2022-12-25T21:09:54.653Z,45.67
2022-12-25T21:12:22.904Z,52.00
2022-12-25T21:14:53.031Z,42.40
2022-12-25T21:17:21.261Z,30.43
2022-12-25T21:19:49.824Z,30.20
2022-12-25T21:22:18.088Z,41.93
2022-12-25T21:24:51.907Z,35.33
2022-12-25T21:27:20.261Z,33.73
2022-12-25T21:29:48.856Z,38.40
2022-12-25T21:32:36.390Z,38.17
2022-12-25T21:35:05.356Z,38.57
2022-12-25T21:37:34.181Z,41.10
2022-12-25T21:40:02.694Z,35.43
2022-12-25T21:42:31.044Z,41.70
2022-12-25T21:44:59.647Z,38.27
2022-12-25T21:48:00.407Z,35.90
2022-12-25T21:50:39.240Z,34.47
2022-12-25T21:53:08.489Z,44.73
2022-12-25T21:55:37.131Z,33.27
2022-12-25T21:58:05.474Z,29.13
2022-12-25T22:00:34.125Z,32.10
2022-12-25T22:03:03.863Z,44.80
2022-12-25T22:05:50.335Z,39.20
2022-12-25T22:08:18.696Z,28.13
2022-12-25T22:10:47.803Z,29.17
2022-12-25T22:13:42.256Z,35.90
2022-12-25T22:16:28.318Z,35.40
2022-12-25T22:19:15.727Z,40.97
2022-12-25T22:21:44.712Z,34.07
2022-12-25T22:24:13.070Z,34.00
2022-12-25T22:26:44.568Z,38.33
2022-12-25T22:29:12.838Z,32.43
2022-12-25T22:31:46.727Z,32.40
2022-12-25T22:34:17.995Z,32.03
2022-12-25T22:36:46.733Z,33.63
2022-12-25T22:39:15.222Z,37.33
2022-12-25T22:41:44.121Z,30.57
2022-12-25T22:44:17.621Z,35.20
2022-12-25T22:46:47.242Z,25.33
2022-12-25T22:49:17.290Z,35.17
2022-12-25T22:51:47.247Z,34.93
2022-12-25T22:54:17.209Z,29.87
2022-12-25T22:56:47.590Z,23.73
2022-12-25T22:59:17.653Z,29.83
2022-12-25T23:01:46.602Z,27.93
2022-12-25T23:04:15.016Z,34.93
2022-12-25T23:06:46.485Z,36.43
2022-12-25T23:09:24.208Z,28.40
2022-12-25T23:11:53.316Z,28.07
2022-12-25T23:14:38.856Z,34.33
2022-12-25T23:17:29.848Z,35.27
2022-12-25T23:20:17.658Z,26.07
2022-12-25T23:23:05.567Z,33.57
2022-12-25T23:25:53.323Z,25.73
2022-12-25T23:28:36.244Z,25.07
2022-12-25T23:31:04.828Z,28.97
2022-12-25T23:33:33.651Z,25.90
2022-12-25T23:36:02.112Z,33.60
2022-12-25T23:38:32.201Z,27.60
2022-12-25T23:41:00.566Z,27.43
2022-12-25T23:43:29.241Z,28.57
2022-12-25T23:45:58.068Z,25.20
2022-12-25T23:48:26.541Z,30.57
2022-12-25T23:50:55.147Z,24.73
2022-12-25T23:53:24.388Z,31.67
2022-12-25T23:55:55.940Z,24.90
2022-12-25T23:58:24.861Z,25.30
